sensor_id;sensor_type;location;lat;lon;timestamp;pressure;altitude;pressure_sealevel;temperature
76009;BMP280;64700;52.130;21.270;2023-09-19T00:01:14;99986.91;;;23.99
76009;BMP280;64700;52.130;21.270;2023-09-19T00:03:40;99977.97;;;23.99
76009;BMP280;64700;52.130;21.270;2023-09-19T00:06:07;99979.44;;;24.00
76009;BMP280;64700;52.130;21.270;2023-09-19T00:08:33;99977.22;;;23.98
76009;BMP280;64700;52.130;21.270;2023-09-19T00:10:58;99977.22;;;23.98
76009;BMP280;64700;52.130;21.270;2023-09-19T00:13:34;99978.72;;;23.99
76009;BMP280;64700;52.130;21.270;2023-09-19T00:16:01;99980.69;;;23.99
76009;BMP280;64700;52.130;21.270;2023-09-19T00:18:26;99979.94;;;23.98
76009;BMP280;64700;52.130;21.270;2023-09-19T00:20:59;99980.69;;;23.99
76009;BMP280;64700;52.130;21.270;2023-09-19T00:23:24;99977.22;;;23.98
76009;BMP280;64700;52.130;21.270;2023-09-19T00:25:50;99974.47;;;23.98
76009;BMP280;64700;52.130;21.270;2023-09-19T00:28:16;99980.69;;;23.99
76009;BMP280;64700;52.130;21.270;2023-09-19T00:30:45;99965.53;;;23.98
76009;BMP280;64700;52.130;21.270;2023-09-19T00:33:11;99972.50;;;23.99
76009;BMP280;64700;52.130;21.270;2023-09-19T00:35:46;99977.97;;;23.99
76009;BMP280;64700;52.130;21.270;2023-09-19T00:38:11;99968.28;;;23.98
76009;BMP280;64700;52.130;21.270;2023-09-19T00:40:43;99963.31;;;23.96
76009;BMP280;64700;52.130;21.270;2023-09-19T00:43:09;99965.53;;;23.98
76009;BMP280;64700;52.130;21.270;2023-09-19T00:45:34;99961.34;;;23.97
76009;BMP280;64700;52.130;21.270;2023-09-19T00:48:01;99961.34;;;23.97
76009;BMP280;64700;52.130;21.270;2023-09-19T00:50:35;99951.66;;;23.96
76009;BMP280;64700;52.130;21.270;2023-09-19T00:53:01;99949.69;;;23.96
76009;BMP280;64700;52.130;21.270;2023-09-19T00:55:32;99952.41;;;23.96
76009;BMP280;64700;52.130;21.270;2023-09-19T00:57:59;99957.88;;;23.96
76009;BMP280;64700;52.130;21.270;2023-09-19T01:00:24;99948.19;;;23.95
76009;BMP280;64700;52.130;21.270;2023-09-19T01:02:49;99944.97;;;23.97
76009;BMP280;64700;52.130;21.270;2023-09-19T01:05:15;99938.00;;;23.96
76009;BMP280;64700;52.130;21.270;2023-09-19T01:07:41;99938.00;;;23.96
76009;BMP280;64700;52.130;21.270;2023-09-19T01:10:11;99946.19;;;23.96
76009;BMP280;64700;52.130;21.270;2023-09-19T01:12:48;99937.25;;;23.95
76009;BMP280;64700;52.130;21.270;2023-09-19T01:15:21;99946.94;;;23.96
76009;BMP280;64700;52.130;21.270;2023-09-19T01:17:57;99942.72;;;23.95
76009;BMP280;64700;52.130;21.270;2023-09-19T01:22:55;99929.06;;;23.95
76009;BMP280;64700;52.130;21.270;2023-09-19T01:28:39;99915.94;;;23.94
76009;BMP280;64700;52.130;21.270;2023-09-19T01:31:09;99922.84;;;23.95
76009;BMP280;64700;52.130;21.270;2023-09-19T01:36:20;99916.66;;;23.94
76009;BMP280;64700;52.130;21.270;2023-09-19T01:38:46;99905.72;;;23.94
76009;BMP280;64700;52.130;21.270;2023-09-19T01:41:13;99905.00;;;23.94
76009;BMP280;64700;52.130;21.270;2023-09-19T01:43:43;99906.47;;;23.95
76009;BMP280;64700;52.130;21.270;2023-09-19T01:46:14;99911.19;;;23.94
76009;BMP280;64700;52.130;21.270;2023-09-19T01:51:11;99897.53;;;23.94
76009;BMP280;64700;52.130;21.270;2023-09-19T01:56:20;99893.81;;;23.92
76009;BMP280;64700;52.130;21.270;2023-09-19T01:58:48;99890.59;;;23.93
76009;BMP280;64700;52.130;21.270;2023-09-19T02:01:16;99894.09;;;23.94
76009;BMP280;64700;52.130;21.270;2023-09-19T02:03:43;99899.53;;;23.94
76009;BMP280;64700;52.130;21.270;2023-09-19T02:06:13;99898.06;;;23.93
76009;BMP280;64700;52.130;21.270;2023-09-19T02:08:39;99898.06;;;23.93
76009;BMP280;64700;52.130;21.270;2023-09-19T02:11:04;99901.53;;;23.93
76009;BMP280;64700;52.130;21.270;2023-09-19T02:13:29;99893.34;;;23.93
76009;BMP280;64700;52.130;21.270;2023-09-19T02:15:56;99893.34;;;23.93
76009;BMP280;64700;52.130;21.270;2023-09-19T02:18:21;99892.59;;;23.93
76009;BMP280;64700;52.130;21.270;2023-09-19T02:20:47;99888.63;;;23.94
76009;BMP280;64700;52.130;21.270;2023-09-19T02:23:12;99891.34;;;23.94
76009;BMP280;64700;52.130;21.270;2023-09-19T02:25:38;99889.84;;;23.93
76009;BMP280;64700;52.130;21.270;2023-09-19T02:28:05;99883.66;;;23.92
76009;BMP280;64700;52.130;21.270;2023-09-19T02:30:30;99880.91;;;23.92
76009;BMP280;64700;52.130;21.270;2023-09-19T02:32:56;99889.13;;;23.92
76009;BMP280;64700;52.130;21.270;2023-09-19T02:35:21;99882.91;;;23.92
76009;BMP280;64700;52.130;21.270;2023-09-19T02:37:47;99882.41;;;23.93
76009;BMP280;64700;52.130;21.270;2023-09-19T02:40:12;99878.19;;;23.92
76009;BMP280;64700;52.130;21.270;2023-09-19T02:42:44;99871.97;;;23.92
76009;BMP280;64700;52.130;21.270;2023-09-19T02:45:13;99871.50;;;23.93
76009;BMP280;64700;52.130;21.270;2023-09-19T02:47:41;99869.25;;;23.92
76009;BMP280;64700;52.130;21.270;2023-09-19T02:50:07;99865.28;;;23.93
76009;BMP280;64700;52.130;21.270;2023-09-19T02:52:34;99871.97;;;23.92
76009;BMP280;64700;52.130;21.270;2023-09-19T02:55:00;99857.59;;;23.91
76009;BMP280;64700;52.130;21.270;2023-09-19T02:57:27;99859.06;;;23.92
76009;BMP280;64700;52.130;21.270;2023-09-19T02:59:52;99859.81;;;23.93
76009;BMP280;64700;52.130;21.270;2023-09-19T03:02:17;99861.81;;;23.92
76009;BMP280;64700;52.130;21.270;2023-09-19T03:04:43;99852.88;;;23.92
76009;BMP280;64700;52.130;21.270;2023-09-19T03:07:10;99852.13;;;23.91
76009;BMP280;64700;52.130;21.270;2023-09-19T03:09:36;99847.94;;;23.90
76009;BMP280;64700;52.130;21.270;2023-09-19T03:12:01;99852.13;;;23.91
76009;BMP280;64700;52.130;21.270;2023-09-19T03:14:27;99846.66;;;23.91
76009;BMP280;64700;52.130;21.270;2023-09-19T03:16:55;99838.47;;;23.91
76009;BMP280;64700;52.130;21.270;2023-09-19T03:19:21;99833.53;;;23.89
76009;BMP280;64700;52.130;21.270;2023-09-19T03:21:48;99825.56;;;23.92
76009;BMP280;64700;52.130;21.270;2023-09-19T03:24:15;99828.81;;;23.90
76009;BMP280;64700;52.130;21.270;2023-09-19T03:26:40;99824.59;;;23.89
76009;BMP280;64700;52.130;21.270;2023-09-19T03:29:06;99829.53;;;23.90
76009;BMP280;64700;52.130;21.270;2023-09-19T03:31:31;99828.81;;;23.90
76009;BMP280;64700;52.130;21.270;2023-09-19T03:33:57;99825.34;;;23.89
76009;BMP280;64700;52.130;21.270;2023-09-19T03:36:22;99822.59;;;23.89
76009;BMP280;64700;52.130;21.270;2023-09-19T03:38:49;99818.34;;;23.88
76009;BMP280;64700;52.130;21.270;2023-09-19T03:41:14;99821.88;;;23.89
76009;BMP280;64700;52.130;21.270;2023-09-19T03:43:42;99818.34;;;23.88
76009;BMP280;64700;52.130;21.270;2023-09-19T03:46:07;99823.06;;;23.88
76009;BMP280;64700;52.130;21.270;2023-09-19T03:48:32;99827.31;;;23.89
76009;BMP280;64700;52.130;21.270;2023-09-19T03:50:58;99827.31;;;23.89
76009;BMP280;64700;52.130;21.270;2023-09-19T03:53:23;99820.34;;;23.88
76009;BMP280;64700;52.130;21.270;2023-09-19T03:55:49;99827.78;;;23.87
76009;BMP280;64700;52.130;21.270;2023-09-19T03:58:15;99822.31;;;23.87
76009;BMP280;64700;52.130;21.270;2023-09-19T04:00:40;99826.53;;;23.88
76009;BMP280;64700;52.130;21.270;2023-09-19T04:03:05;99825.81;;;23.88
76009;BMP280;64700;52.130;21.270;2023-09-19T04:05:32;99826.53;;;23.88
76009;BMP280;64700;52.130;21.270;2023-09-19T04:07:58;99834.75;;;23.88
76009;BMP280;64700;52.130;21.270;2023-09-19T04:10:23;99818.34;;;23.88
76009;BMP280;64700;52.130;21.270;2023-09-19T04:12:51;99812.91;;;23.88
76009;BMP280;64700;52.130;21.270;2023-09-19T04:15:17;99813.38;;;23.87
76009;BMP280;64700;52.130;21.270;2023-09-19T04:17:42;99812.16;;;23.88
76009;BMP280;64700;52.130;21.270;2023-09-19T04:20:07;99805.19;;;23.87
76009;BMP280;64700;52.130;21.270;2023-09-19T04:22:33;99802.47;;;23.87
76009;BMP280;64700;52.130;21.270;2023-09-19T04:24:58;99805.94;;;23.87
76009;BMP280;64700;52.130;21.270;2023-09-19T04:27:23;99793.56;;;23.86
76009;BMP280;64700;52.130;21.270;2023-09-19T04:29:48;99785.38;;;23.86
76009;BMP280;64700;52.130;21.270;2023-09-19T04:32:15;99782.13;;;23.88
76009;BMP280;64700;52.130;21.270;2023-09-19T04:34:42;99784.09;;;23.87
76009;BMP280;64700;52.130;21.270;2023-09-19T04:37:08;99781.88;;;23.86
76009;BMP280;64700;52.130;21.270;2023-09-19T04:39:33;99784.84;;;23.88
76009;BMP280;64700;52.130;21.270;2023-09-19T04:41:59;99776.44;;;23.86
76009;BMP280;64700;52.130;21.270;2023-09-19T04:44:24;99782.63;;;23.86
76009;BMP280;64700;52.130;21.270;2023-09-19T04:46:49;99781.38;;;23.87
76009;BMP280;64700;52.130;21.270;2023-09-19T04:49:15;99774.44;;;23.86
76009;BMP280;64700;52.130;21.270;2023-09-19T04:51:41;99779.91;;;23.86
76009;BMP280;64700;52.130;21.270;2023-09-19T04:54:07;99776.66;;;23.88
76009;BMP280;64700;52.130;21.270;2023-09-19T04:56:32;99775.66;;;23.91
76009;BMP280;64700;52.130;21.270;2023-09-19T04:58:58;99769.94;;;23.95
76009;BMP280;64700;52.130;21.270;2023-09-19T05:01:24;99769.19;;;23.94
76009;BMP280;64700;52.130;21.270;2023-09-19T05:03:49;99776.13;;;23.95
76009;BMP280;64700;52.130;21.270;2023-09-19T05:06:17;99776.13;;;23.95
76009;BMP280;64700;52.130;21.270;2023-09-19T05:08:43;99773.69;;;23.92
76009;BMP280;64700;52.130;21.270;2023-09-19T05:11:08;99778.66;;;23.93
76009;BMP280;64700;52.130;21.270;2023-09-19T05:13:34;99774.91;;;23.90
76009;BMP280;64700;52.130;21.270;2023-09-19T05:16:02;99772.19;;;23.90
76009;BMP280;64700;52.130;21.270;2023-09-19T05:18:27;99766.72;;;23.90
76009;BMP280;64700;52.130;21.270;2023-09-19T05:20:53;99765.72;;;23.88
76009;BMP280;64700;52.130;21.270;2023-09-19T05:23:19;99758.78;;;23.87
76009;BMP280;64700;52.130;21.270;2023-09-19T05:25:46;99765.72;;;23.88
76009;BMP280;64700;52.130;21.270;2023-09-19T05:28:11;99763.53;;;23.86
76009;BMP280;64700;52.130;21.270;2023-09-19T05:30:39;99763.75;;;23.88
76009;BMP280;64700;52.130;21.270;2023-09-19T05:33:05;99771.94;;;23.88
76009;BMP280;64700;52.130;21.270;2023-09-19T05:35:31;99765.00;;;23.87
76009;BMP280;64700;52.130;21.270;2023-09-19T05:37:56;99765.72;;;23.88
76009;BMP280;64700;52.130;21.270;2023-09-19T05:40:23;99758.28;;;23.88
76009;BMP280;64700;52.130;21.270;2023-09-19T05:42:48;99766.47;;;23.88
76009;BMP280;64700;52.130;21.270;2023-09-19T05:45:15;99763.53;;;23.86
76009;BMP280;64700;52.130;21.270;2023-09-19T05:47:43;99770.97;;;23.86
76009;BMP280;64700;52.130;21.270;2023-09-19T05:50:10;99761.28;;;23.85
76009;BMP280;64700;52.130;21.270;2023-09-19T05:52:36;99767.50;;;23.85
76009;BMP280;64700;52.130;21.270;2023-09-19T05:55:03;99759.31;;;23.85
76009;BMP280;64700;52.130;21.270;2023-09-19T05:57:30;99757.31;;;23.86
76009;BMP280;64700;52.130;21.270;2023-09-19T05:59:55;99760.06;;;23.86
76009;BMP280;64700;52.130;21.270;2023-09-19T06:02:20;99753.84;;;23.85
76009;BMP280;64700;52.130;21.270;2023-09-19T06:04:46;99760.06;;;23.86
76009;BMP280;64700;52.130;21.270;2023-09-19T06:07:12;99760.06;;;23.86
76009;BMP280;64700;52.130;21.270;2023-09-19T06:09:38;99761.28;;;23.85
76009;BMP280;64700;52.130;21.270;2023-09-19T06:12:03;99753.84;;;23.85
76009;BMP280;64700;52.130;21.270;2023-09-19T06:14:29;99750.38;;;23.85
76009;BMP280;64700;52.130;21.270;2023-09-19T06:16:55;99750.88;;;23.83
76009;BMP280;64700;52.130;21.270;2023-09-19T06:19:20;99754.34;;;23.84
76009;BMP280;64700;52.130;21.270;2023-09-19T06:21:47;99759.31;;;23.85
76009;BMP280;64700;52.130;21.270;2023-09-19T06:24:13;99753.84;;;23.85
76009;BMP280;64700;52.130;21.270;2023-09-19T06:26:38;99751.13;;;23.85
76009;BMP280;64700;52.130;21.270;2023-09-19T06:29:03;99757.31;;;23.86
76009;BMP280;64700;52.130;21.270;2023-09-19T06:31:29;99765.50;;;23.86
76009;BMP280;64700;52.130;21.270;2023-09-19T06:33:56;99758.06;;;23.86
76009;BMP280;64700;52.130;21.270;2023-09-19T06:36:21;99766.75;;;23.85
76009;BMP280;64700;52.130;21.270;2023-09-19T06:38:49;99765.50;;;23.86
76009;BMP280;64700;52.130;21.270;2023-09-19T06:41:16;99777.19;;;23.86
76009;BMP280;64700;52.130;21.270;2023-09-19T06:43:42;99769.47;;;23.85
76009;BMP280;64700;52.130;21.270;2023-09-19T06:46:07;99776.44;;;23.86
76009;BMP280;64700;52.130;21.270;2023-09-19T06:48:32;99780.41;;;23.85
76009;BMP280;64700;52.130;21.270;2023-09-19T06:50:58;99782.91;;;23.83
76009;BMP280;64700;52.130;21.270;2023-09-19T06:53:29;99787.09;;;23.84
76009;BMP280;64700;52.130;21.270;2023-09-19T06:55:56;99792.56;;;23.84
76009;BMP280;64700;52.130;21.270;2023-09-19T06:58:22;99797.53;;;23.80
76009;BMP280;64700;52.130;21.270;2023-09-19T07:00:47;99796.56;;;23.77
76009;BMP280;64700;52.130;21.270;2023-09-19T07:03:13;99796.34;;;23.75
76009;BMP280;64700;52.130;21.270;2023-09-19T07:05:39;99796.81;;;23.74
76009;BMP280;64700;52.130;21.270;2023-09-19T07:08:05;99794.56;;;23.72
76009;BMP280;64700;52.130;21.270;2023-09-19T07:10:34;99789.41;;;23.74
76009;BMP280;64700;52.130;21.270;2023-09-19T07:13:00;99800.53;;;23.76
76009;BMP280;64700;52.130;21.270;2023-09-19T07:15:25;99794.34;;;23.76
76009;BMP280;64700;52.130;21.270;2023-09-19T07:17:51;99804.03;;;23.77
76009;BMP280;64700;52.130;21.270;2023-09-19T07:20:18;99804.75;;;23.77
76009;BMP280;64700;52.130;21.270;2023-09-19T07:22:43;99803.00;;;23.80
76009;BMP280;64700;52.130;21.270;2023-09-19T07:25:09;99811.44;;;23.82
76009;BMP280;64700;52.130;21.270;2023-09-19T07:27:34;99816.38;;;23.83
76009;BMP280;64700;52.130;21.270;2023-09-19T07:30:00;99827.56;;;23.85
76009;BMP280;64700;52.130;21.270;2023-09-19T07:32:25;99830.28;;;23.85
76009;BMP280;64700;52.130;21.270;2023-09-19T07:34:50;99833.03;;;23.85
76009;BMP280;64700;52.130;21.270;2023-09-19T07:37:15;99831.03;;;23.86
76009;BMP280;64700;52.130;21.270;2023-09-19T07:39:41;99825.56;;;23.86
76009;BMP280;64700;52.130;21.270;2023-09-19T07:42:06;99829.78;;;23.87
76009;BMP280;64700;52.130;21.270;2023-09-19T07:44:32;99825.81;;;23.88
76009;BMP280;64700;52.130;21.270;2023-09-19T07:46:57;99825.81;;;23.88
76009;BMP280;64700;52.130;21.270;2023-09-19T07:49:22;99832.78;;;23.89
76009;BMP280;64700;52.130;21.270;2023-09-19T07:51:47;99834.50;;;23.92
76009;BMP280;64700;52.130;21.270;2023-09-19T07:54:12;99839.97;;;23.92
76009;BMP280;64700;52.130;21.270;2023-09-19T07:56:39;99829.78;;;23.93
76009;BMP280;64700;52.130;21.270;2023-09-19T07:59:04;99829.78;;;23.93
76009;BMP280;64700;52.130;21.270;2023-09-19T08:01:29;99844.19;;;23.93
76009;BMP280;64700;52.130;21.270;2023-09-19T08:03:55;99833.25;;;23.93
76009;BMP280;64700;52.130;21.270;2023-09-19T08:06:20;99836.75;;;23.94
76009;BMP280;64700;52.130;21.270;2023-09-19T08:08:45;99833.25;;;23.93
76009;BMP280;64700;52.130;21.270;2023-09-19T08:11:10;99836.22;;;23.95
76009;BMP280;64700;52.130;21.270;2023-09-19T08:13:37;99839.19;;;23.97
76009;BMP280;64700;52.130;21.270;2023-09-19T08:16:06;99834.47;;;23.98
76009;BMP280;64700;52.130;21.270;2023-09-19T08:18:31;99837.94;;;23.98
76009;BMP280;64700;52.130;21.270;2023-09-19T08:20:56;99838.19;;;24.00
76009;BMP280;64700;52.130;21.270;2023-09-19T08:23:23;99842.16;;;23.99
76009;BMP280;64700;52.130;21.270;2023-09-19T08:25:48;99842.66;;;23.98
76009;BMP280;64700;52.130;21.270;2023-09-19T08:28:14;99842.16;;;23.99
76009;BMP280;64700;52.130;21.270;2023-09-19T08:30:45;99847.63;;;23.99
76009;BMP280;64700;52.130;21.270;2023-09-19T08:33:10;99841.94;;;23.97
76009;BMP280;64700;52.130;21.270;2023-09-19T08:35:36;99836.97;;;23.96
76009;BMP280;64700;52.130;21.270;2023-09-19T08:38:02;99840.44;;;23.96
76009;BMP280;64700;52.130;21.270;2023-09-19T08:40:30;99842.41;;;23.96
76009;BMP280;64700;52.130;21.270;2023-09-19T08:42:58;99843.91;;;23.97
76009;BMP280;64700;52.130;21.270;2023-09-19T08:45:24;99846.66;;;23.97
76009;BMP280;64700;52.130;21.270;2023-09-19T08:48:39;99846.88;;;23.99
76009;BMP280;64700;52.130;21.270;2023-09-19T08:50:43;99846.66;;;23.97
76009;BMP280;64700;52.130;21.270;2023-09-19T08:53:14;99852.09;;;23.97
76009;BMP280;64700;52.130;21.270;2023-09-19T08:55:42;99843.91;;;23.97
76009;BMP280;64700;52.130;21.270;2023-09-19T08:58:10;99842.66;;;23.98
76009;BMP280;64700;52.130;21.270;2023-09-19T09:00:35;99843.91;;;23.97
76009;BMP280;64700;52.130;21.270;2023-09-19T09:03:01;99834.97;;;23.96
76009;BMP280;64700;52.130;21.270;2023-09-19T09:05:27;99841.94;;;23.97
76009;BMP280;64700;52.130;21.270;2023-09-19T09:07:53;99844.66;;;23.97
76009;BMP280;64700;52.130;21.270;2023-09-19T09:10:22;99850.13;;;23.97
76009;BMP280;64700;52.130;21.270;2023-09-19T09:12:53;99843.66;;;23.95
76009;BMP280;64700;52.130;21.270;2023-09-19T09:15:20;99845.91;;;23.96
76009;BMP280;64700;52.130;21.270;2023-09-19T09:17:47;99851.84;;;23.95
76009;BMP280;64700;52.130;21.270;2023-09-19T09:20:13;99851.84;;;23.95
76009;BMP280;64700;52.130;21.270;2023-09-19T09:22:39;99854.09;;;23.96
76009;BMP280;64700;52.130;21.270;2023-09-19T09:25:09;99853.34;;;23.96
76009;BMP280;64700;52.130;21.270;2023-09-19T09:27:34;99857.56;;;23.97
76009;BMP280;64700;52.130;21.270;2023-09-19T09:29:59;99861.53;;;23.96
76009;BMP280;64700;52.130;21.270;2023-09-19T09:32:28;99862.28;;;23.96
76009;BMP280;64700;52.130;21.270;2023-09-19T09:34:58;99873.44;;;23.98
76009;BMP280;64700;52.130;21.270;2023-09-19T09:37:24;99879.66;;;23.99
76009;BMP280;64700;52.130;21.270;2023-09-19T09:39:55;99872.69;;;23.98
76009;BMP280;64700;52.130;21.270;2023-09-19T09:45:39;99886.88;;;23.96
76009;BMP280;64700;52.130;21.270;2023-09-19T09:48:02;99883.59;;;23.98
76009;BMP280;64700;52.130;21.270;2023-09-19T09:50:39;99883.38;;;23.96
76009;BMP280;64700;52.130;21.270;2023-09-19T09:53:23;99886.13;;;23.96
76009;BMP280;64700;52.130;21.270;2023-09-19T09:58:27;99898.81;;;23.93
76009;BMP280;64700;52.130;21.270;2023-09-19T10:00:57;99907.75;;;23.94
76009;BMP280;64700;52.130;21.270;2023-09-19T10:03:33;99905.72;;;23.94
76009;BMP280;64700;52.130;21.270;2023-09-19T10:06:04;99909.72;;;23.93
76009;BMP280;64700;52.130;21.270;2023-09-19T10:11:31;99920.38;;;23.91
76009;BMP280;64700;52.130;21.270;2023-09-19T10:13:57;99933.28;;;23.90
76009;BMP280;64700;52.130;21.270;2023-09-19T10:16:26;99941.75;;;23.93
76009;BMP280;64700;52.130;21.270;2023-09-19T10:18:55;99942.97;;;23.92
76009;BMP280;64700;52.130;21.270;2023-09-19T10:21:23;99944.97;;;23.91
76009;BMP280;64700;52.130;21.270;2023-09-19T10:23:49;99935.78;;;23.88
76009;BMP280;64700;52.130;21.270;2023-09-19T10:26:17;99935.03;;;23.88
76009;BMP280;64700;52.130;21.270;2023-09-19T10:28:43;99928.81;;;23.87
76009;BMP280;64700;52.130;21.270;2023-09-19T10:31:09;99934.78;;;23.86
76009;BMP280;64700;52.130;21.270;2023-09-19T10:33:39;99938.28;;;23.86
76009;BMP280;64700;52.130;21.270;2023-09-19T10:36:08;99943.00;;;23.86
76009;BMP280;64700;52.130;21.270;2023-09-19T10:38:36;99939.50;;;23.85
76009;BMP280;64700;52.130;21.270;2023-09-19T10:41:06;99946.94;;;23.85
76009;BMP280;64700;52.130;21.270;2023-09-19T10:43:32;99940.00;;;23.84
76009;BMP280;64700;52.130;21.270;2023-09-19T10:46:01;99943.25;;;23.82
76009;BMP280;64700;52.130;21.270;2023-09-19T10:48:29;99947.22;;;23.81
76009;BMP280;64700;52.130;21.270;2023-09-19T10:51:07;99954.16;;;23.82
76009;BMP280;64700;52.130;21.270;2023-09-19T10:53:54;99941.25;;;23.83
76009;BMP280;64700;52.130;21.270;2023-09-19T10:56:24;99945.97;;;23.82
76009;BMP280;64700;52.130;21.270;2023-09-19T10:59:04;99945.97;;;23.82
76009;BMP280;64700;52.130;21.270;2023-09-19T11:01:49;99954.16;;;23.82
76009;BMP280;64700;52.130;21.270;2023-09-19T11:04:34;99946.72;;;23.83
76009;BMP280;64700;52.130;21.270;2023-09-19T11:14:56;99931.59;;;23.82
76009;BMP280;64700;52.130;21.270;2023-09-19T11:17:38;99937.03;;;23.82
76009;BMP280;64700;52.130;21.270;2023-09-19T11:30:34;99958.88;;;23.82
76009;BMP280;64700;52.130;21.270;2023-09-19T11:46:32;99962.63;;;23.79
76009;BMP280;64700;52.130;21.270;2023-09-19T11:49:05;99961.88;;;23.78
76009;BMP280;64700;52.130;21.270;2023-09-19T11:51:42;99957.16;;;23.79
76009;BMP280;64700;52.130;21.270;2023-09-19T11:54:11;99957.16;;;23.79
76009;BMP280;64700;52.130;21.270;2023-09-19T11:56:42;99962.09;;;23.80
76009;BMP280;64700;52.130;21.270;2023-09-19T11:59:09;99965.59;;;23.81
76009;BMP280;64700;52.130;21.270;2023-09-19T12:01:38;99962.09;;;23.80
76009;BMP280;64700;52.130;21.270;2023-09-19T12:04:11;99968.56;;;23.83
76009;BMP280;64700;52.130;21.270;2023-09-19T12:06:40;99963.81;;;23.83
76009;BMP280;64700;52.130;21.270;2023-09-19T12:09:12;99970.28;;;23.86
76009;BMP280;64700;52.130;21.270;2023-09-19T12:11:42;99970.28;;;23.86
76009;BMP280;64700;52.130;21.270;2023-09-19T12:14:09;99966.81;;;23.85
76009;BMP280;64700;52.130;21.270;2023-09-19T12:16:34;99966.81;;;23.85
76009;BMP280;64700;52.130;21.270;2023-09-19T12:19:17;99971.75;;;23.87
76009;BMP280;64700;52.130;21.270;2023-09-19T12:21:43;99971.03;;;23.86
76009;BMP280;64700;52.130;21.270;2023-09-19T12:24:12;99972.28;;;23.85
76009;BMP280;64700;52.130;21.270;2023-09-19T12:26:44;99978.97;;;23.84
76009;BMP280;64700;52.130;21.270;2023-09-19T12:29:16;99977.47;;;23.83
76009;BMP280;64700;52.130;21.270;2023-09-19T12:32:03;99986.41;;;23.84
76009;BMP280;64700;52.130;21.270;2023-09-19T12:34:30;99980.22;;;23.83
76009;BMP280;64700;52.130;21.270;2023-09-19T12:39:36;99990.91;;;23.81
76009;BMP280;64700;52.130;21.270;2023-09-19T12:42:01;99995.38;;;23.79
76009;BMP280;64700;52.130;21.270;2023-09-19T12:44:29;100005.56;;;23.78
76009;BMP280;64700;52.130;21.270;2023-09-19T12:46:54;100011.03;;;23.78
76009;BMP280;64700;52.130;21.270;2023-09-19T12:49:21;100012.75;;;23.76
76009;BMP280;64700;52.130;21.270;2023-09-19T12:51:47;100010.00;;;23.76
76009;BMP280;64700;52.130;21.270;2023-09-19T12:54:13;100017.47;;;23.75
76009;BMP280;64700;52.130;21.270;2023-09-19T12:56:44;100024.41;;;23.76
76009;BMP280;64700;52.130;21.270;2023-09-19T12:59:12;100014.25;;;23.77
76009;BMP280;64700;52.130;21.270;2023-09-19T13:01:38;100009.53;;;23.77
76009;BMP280;64700;52.130;21.270;2023-09-19T13:04:16;100003.31;;;23.77
76009;BMP280;64700;52.130;21.270;2023-09-19T13:06:45;100002.09;;;23.78
76009;BMP280;64700;52.130;21.270;2023-09-19T13:09:13;99999.34;;;23.78
76009;BMP280;64700;52.130;21.270;2023-09-19T13:11:40;99999.56;;;23.80
76009;BMP280;64700;52.130;21.270;2023-09-19T13:14:14;99996.84;;;23.80
76009;BMP280;64700;52.130;21.270;2023-09-19T13:19:46;99994.88;;;23.80
76009;BMP280;64700;52.130;21.270;2023-09-19T13:24:58;99995.63;;;23.81
76009;BMP280;64700;52.130;21.270;2023-09-19T13:27:24;100000.59;;;23.82
76009;BMP280;64700;52.130;21.270;2023-09-19T13:29:49;100004.06;;;23.83
76009;BMP280;64700;52.130;21.270;2023-09-19T13:32:14;100006.28;;;23.84
76009;BMP280;64700;52.130;21.270;2023-09-19T13:34:39;100002.81;;;23.84
76009;BMP280;64700;52.130;21.270;2023-09-19T13:37:04;100005.53;;;23.84
76009;BMP280;64700;52.130;21.270;2023-09-19T13:39:31;100005.03;;;23.85
76009;BMP280;64700;52.130;21.270;2023-09-19T13:41:56;99998.84;;;23.85
76009;BMP280;64700;52.130;21.270;2023-09-19T13:44:21;100003.06;;;23.86
76009;BMP280;64700;52.130;21.270;2023-09-19T13:46:46;100001.56;;;23.85
76009;BMP280;64700;52.130;21.270;2023-09-19T13:49:12;100003.06;;;23.86
76009;BMP280;64700;52.130;21.270;2023-09-19T13:51:37;100009.75;;;23.85
76009;BMP280;64700;52.130;21.270;2023-09-19T13:54:02;100015.22;;;23.85
76009;BMP280;64700;52.130;21.270;2023-09-19T13:56:27;100005.53;;;23.84
76009;BMP280;64700;52.130;21.270;2023-09-19T13:58:53;100009.00;;;23.84
76009;BMP280;64700;52.130;21.270;2023-09-19T14:01:20;100017.94;;;23.85
76009;BMP280;64700;52.130;21.270;2023-09-19T14:03:45;100005.53;;;23.84
76009;BMP280;64700;52.130;21.270;2023-09-19T14:06:11;100007.50;;;23.83
76009;BMP280;64700;52.130;21.270;2023-09-19T14:08:37;100007.50;;;23.83
76009;BMP280;64700;52.130;21.270;2023-09-19T14:11:07;100006.28;;;23.84
76009;BMP280;64700;52.130;21.270;2023-09-19T14:13:32;100011.75;;;23.84
76009;BMP280;64700;52.130;21.270;2023-09-19T14:15:57;100015.69;;;23.83
76009;BMP280;64700;52.130;21.270;2023-09-19T14:18:22;100012.50;;;23.85
76009;BMP280;64700;52.130;21.270;2023-09-19T14:20:47;100015.69;;;23.83
76009;BMP280;64700;52.130;21.270;2023-09-19T14:23:13;100016.44;;;23.84
76009;BMP280;64700;52.130;21.270;2023-09-19T14:25:38;100007.50;;;23.83
76009;BMP280;64700;52.130;21.270;2023-09-19T14:28:04;100014.47;;;23.84
76009;BMP280;64700;52.130;21.270;2023-09-19T14:30:29;100017.19;;;23.84
76009;BMP280;64700;52.130;21.270;2023-09-19T14:32:54;100019.94;;;23.84
76009;BMP280;64700;52.130;21.270;2023-09-19T14:35:20;100030.84;;;23.84
76009;BMP280;64700;52.130;21.270;2023-09-19T14:37:47;100031.59;;;23.85
76009;BMP280;64700;52.130;21.270;2023-09-19T14:40:13;100028.88;;;23.85
76009;BMP280;64700;52.130;21.270;2023-09-19T14:42:40;100029.84;;;23.87
76009;BMP280;64700;52.130;21.270;2023-09-19T14:45:05;100032.13;;;23.89
76009;BMP280;64700;52.130;21.270;2023-09-19T14:47:31;100034.06;;;23.88
76009;BMP280;64700;52.130;21.270;2023-09-19T14:49:58;100036.34;;;23.90
76009;BMP280;64700;52.130;21.270;2023-09-19T14:52:24;100029.38;;;23.89
76009;BMP280;64700;52.130;21.270;2023-09-19T14:54:52;100037.59;;;23.89
76009;BMP280;64700;52.130;21.270;2023-09-19T14:57:18;100039.06;;;23.90